Time;durP1;ratioP1;P1;durP2;ratioP2;P2;SDS_P1;SDS_P2;PMS_P1;PMS_P2;Temp;Humidity;BMP_temperature;BMP_pressure;BME280_temperature;BME280_humidity;BME280_pressure;Samples;Min_cycle;Max_cycle;Signal;HPM_P1;HPM_P2
2022/04/15 18:37:40;;;;;;;38.00;23.70;;;;;;;10.84;60.30;99194.96;106142;1274;106527;-70
2022/04/15 18:40:09;;;;;;;39.10;23.80;;;;;;;10.79;60.28;99196.70;106016;1276;99345;-68
2022/04/15 18:42:37;;;;;;;33.70;19.90;;;;;;;10.75;60.16;99197.20;105958;1276;97781;-68
2022/04/15 18:45:07;;;;;;;32.10;18.50;;;;;;;10.70;59.94;99195.58;105782;1276;113402;-70
2022/04/15 18:47:36;;;;;;;28.20;15.40;;;;;;;10.61;59.94;99195.83;105748;1276;99218;-69
2022/04/15 18:52:52;;;;;;;25.80;13.40;;;;;;;10.51;60.34;99192.52;105796;1276;99226;-69
2022/04/15 18:55:21;;;;;;;29.20;16.20;;;;;;;10.49;60.30;99197.42;105854;1276;99360;-69
2022/04/15 18:57:51;;;;;;;28.50;16.10;;;;;;;10.47;60.28;99194.19;105717;1276;112745;-69
2022/04/15 19:00:20;;;;;;;28.80;15.40;;;;;;;10.46;60.47;99190.71;105792;1276;99320;-69
2022/04/15 19:02:48;;;;;;;30.60;16.90;;;;;;;10.47;60.72;99191.31;105945;1276;109553;-70
2022/04/15 19:05:16;;;;;;;28.10;15.10;;;;;;;10.49;60.69;99193.48;105616;1278;99348;-69
2022/04/15 19:07:44;;;;;;;27.70;15.10;;;;;;;10.52;60.72;99191.33;106000;1276;97849;-68
2022/04/15 19:10:12;;;;;;;27.60;14.70;;;;;;;10.55;60.78;99192.39;105886;1276;113350;-69
2022/04/15 19:12:41;;;;;;;29.20;15.70;;;;;;;10.57;60.93;99190.27;105702;1278;97902;-69
2022/04/15 19:15:10;;;;;;;27.90;14.90;;;;;;;10.61;60.91;99189.48;105714;1276;108146;-67
2022/04/15 19:17:38;;;;;;;26.70;14.30;;;;;;;10.62;60.94;99183.54;106251;1276;96637;-67
2022/04/15 19:20:10;;;;;;;30.60;15.60;;;;;;;10.63;60.94;99177.30;105775;1276;99250;-70
2022/04/15 19:22:38;;;;;;;28.80;15.50;;;;;;;10.64;61.00;99176.16;105900;1279;112775;-71
2022/04/15 19:25:07;;;;;;;30.10;15.20;;;;;;;10.65;61.15;99173.04;105965;1276;99308;-71
2022/04/15 19:27:36;;;;;;;30.30;16.20;;;;;;;10.67;61.21;99177.20;105835;1276;108121;-69
2022/04/15 19:30:05;;;;;;;27.40;15.50;;;;;;;10.67;61.17;99172.70;105819;1276;99256;-69
2022/04/15 19:32:33;;;;;;;31.20;17.10;;;;;;;10.68;61.12;99169.63;106020;1276;97951;-69
2022/04/15 19:35:02;;;;;;;32.50;17.80;;;;;;;10.66;61.13;99173.66;105942;1276;113432;-70
2022/04/15 19:37:32;;;;;;;29.10;16.80;;;;;;;10.66;61.25;99174.92;105824;1276;99346;-69
2022/04/15 19:40:00;;;;;;;30.40;18.40;;;;;;;10.66;61.18;99171.55;105785;1276;107356;-72
2022/04/15 19:42:28;;;;;;;28.60;17.10;;;;;;;10.65;61.18;99170.39;105855;1276;98003;-71
2022/04/15 19:45:00;;;;;;;29.90;16.70;;;;;;;10.64;61.47;99171.71;105831;1276;99207;-69
2022/04/15 19:47:29;;;;;;;31.60;17.50;;;;;;;10.63;61.40;99170.52;105894;1276;112749;-68
2022/04/15 19:49:58;;;;;;;34.40;18.80;;;;;;;10.64;61.50;99165.36;105869;1276;99326;-68
2022/04/15 19:52:29;;;;;;;34.90;19.80;;;;;;;10.65;61.48;99166.15;105713;1276;108395;-70
2022/04/15 19:54:56;;;;;;;40.10;21.00;;;;;;;10.66;61.52;99164.15;105797;1276;99233;-69
2022/04/15 20:03:23;;;;;;;36.90;19.30;;;;;;;10.62;61.79;99152.15;105773;1276;99226;-69
2022/04/15 20:05:51;;;;;;;33.60;17.90;;;;;;;10.61;61.71;99144.44;105834;1276;107826;-69
2022/04/15 20:08:21;;;;;;;35.10;19.30;;;;;;;10.60;61.76;99145.60;105837;1276;99433;-69
2022/04/15 20:10:52;;;;;;;32.60;19.40;;;;;;;10.59;61.69;99147.23;105833;1276;99246;-69
2022/04/15 20:13:21;;;;;;;32.80;18.70;;;;;;;10.57;61.68;99147.02;105815;1276;113544;-68
2022/04/15 20:15:50;;;;;;;35.60;18.20;;;;;;;10.56;61.73;99139.13;105922;1276;99317;-68
2022/04/15 20:18:18;;;;;;;34.20;18.80;;;;;;;10.54;61.74;99141.71;105773;1276;108586;-68
2022/04/15 20:20:48;;;;;;;37.00;18.90;;;;;;;10.54;61.73;99142.65;105836;1276;99220;-69
2022/04/15 20:23:18;;;;;;;34.60;20.10;;;;;;;10.53;61.89;99139.33;105815;1276;99334;-69
2022/04/15 20:25:46;;;;;;;34.90;20.20;;;;;;;10.54;61.87;99143.90;105955;1276;112927;-68
2022/04/15 20:28:15;;;;;;;32.60;19.30;;;;;;;10.54;61.98;99142.26;105966;1276;98486;-68
2022/04/15 20:30:43;;;;;;;34.20;18.60;;;;;;;10.56;62.01;99141.09;105895;1276;108634;-69
2022/04/15 20:33:12;;;;;;;32.60;17.40;;;;;;;10.56;61.96;99142.64;105949;1276;99323;-67
2022/04/15 20:35:42;;;;;;;32.50;19.10;;;;;;;10.53;61.82;99144.82;105945;1276;99350;-70
2022/04/15 20:38:10;;;;;;;35.40;20.20;;;;;;;10.49;62.12;99152.19;105880;1276;113714;-69
2022/04/15 20:40:44;;;;;;;37.00;20.70;;;;;;;10.50;62.04;99155.70;105853;1276;99199;-67
2022/04/15 20:43:15;;;;;;;39.90;24.30;;;;;;;10.48;62.18;99155.10;105836;1276;107764;-67
2022/04/15 20:45:45;;;;;;;39.00;24.70;;;;;;;10.46;62.14;99156.86;105858;1276;99214;-68
2022/04/15 20:51:03;;;;;;;40.70;23.90;;;;;;;10.41;62.18;99156.08;105819;1276;112436;-68
2022/04/15 20:53:32;;;;;;;40.60;23.20;;;;;;;10.38;62.01;99155.27;105777;1276;99203;-68
2022/04/15 20:56:01;;;;;;;43.10;26.20;;;;;;;10.31;62.04;99155.73;105738;1276;108365;-69
2022/04/15 20:58:29;;;;;;;38.80;25.60;;;;;;;10.24;62.14;99154.75;105913;1276;100389;-70
2022/04/15 21:00:58;;;;;;;41.20;26.20;;;;;;;10.20;62.19;99151.38;105954;1276;99424;-69
2022/04/15 21:03:27;;;;;;;40.50;25.20;;;;;;;10.15;62.21;99152.95;105967;1276;112742;-68
2022/04/15 21:05:56;;;;;;;39.80;23.90;;;;;;;10.10;62.20;99152.91;105983;1276;96759;-67
2022/04/15 21:08:24;;;;;;;35.70;21.80;;;;;;;10.05;62.27;99152.39;106041;1276;108399;-69
2022/04/15 21:10:55;;;;;;;37.80;22.00;;;;;;;10.02;62.44;99149.41;105958;1276;99931;-70
2022/04/15 21:13:26;;;;;;;33.70;21.90;;;;;;;10.01;62.51;99147.70;105981;1276;99248;-67
2022/04/15 21:15:57;;;;;;;36.50;21.60;;;;;;;10.01;62.46;99138.28;105918;1276;114091;-69
2022/04/15 21:18:28;;;;;;;35.50;21.70;;;;;;;10.01;62.69;99135.61;105784;1276;99248;-69
2022/04/15 21:21:13;;;;;;;33.60;19.90;;;;;;;10.00;62.72;99136.96;105922;1276;108217;-69
2022/04/15 21:23:46;;;;;;;33.00;19.80;;;;;;;9.96;62.73;99136.64;105945;1276;99189;-68
2022/04/15 21:26:14;;;;;;;34.70;20.20;;;;;;;9.96;62.64;99135.83;106025;1276;99307;-69
2022/04/15 21:28:43;;;;;;;34.20;18.70;;;;;;;9.94;62.77;99137.36;105839;1278;113427;-67
2022/04/15 21:31:13;;;;;;;30.20;18.30;;;;;;;9.92;62.50;99132.91;105909;1276;99247;-71
2022/04/15 21:33:47;;;;;;;30.60;19.30;;;;;;;9.85;62.68;99124.70;105896;1276;108442;-69
2022/04/15 21:36:16;;;;;;;33.60;19.40;;;;;;;9.80;62.77;99124.66;105768;1277;99206;-69
2022/04/15 21:38:45;;;;;;;34.50;19.10;;;;;;;9.80;63.04;99127.33;106000;1276;99299;-67
2022/04/15 21:41:13;;;;;;;33.50;20.50;;;;;;;9.80;63.04;99127.29;105822;1276;113498;-71
2022/04/15 21:43:44;;;;;;;31.90;19.90;;;;;;;9.81;62.98;99125.64;105874;1276;99320;-67
2022/04/15 21:46:13;;;;;;;33.80;21.10;;;;;;;9.80;63.09;99125.56;105861;1276;108347;-69
2022/04/15 21:48:41;;;;;;;33.80;18.90;;;;;;;9.78;62.95;99124.94;105782;1276;99307;-69
2022/04/15 21:53:55;;;;;;;31.70;18.50;;;;;;;9.73;63.14;99127.46;105860;1276;113417;-68
2022/04/15 21:56:26;;;;;;;31.70;18.90;;;;;;;9.71;63.24;99131.64;105872;1276;99338;-70
2022/04/15 21:58:55;;;;;;;32.90;19.40;;;;;;;9.73;63.40;99127.67;105878;1276;108809;-67
2022/04/15 22:01:26;;;;;;;34.90;20.40;;;;;;;9.73;63.39;99128.71;105741;1276;99328;-69
2022/04/15 22:04:00;;;;;;;32.60;18.80;;;;;;;9.72;63.32;99129.29;105914;1276;99311;-73
2022/04/15 22:06:33;;;;;;;32.20;19.90;;;;;;;9.70;63.39;99127.98;105880;1276;112921;-69
2022/04/15 22:09:03;;;;;;;33.30;19.60;;;;;;;9.69;63.57;99124.77;105924;1277;97919;-69
2022/04/15 22:11:31;;;;;;;35.90;19.70;;;;;;;9.69;63.54;99122.23;105877;1277;108507;-68
2022/04/15 22:14:02;;;;;;;34.50;21.50;;;;;;;9.67;63.59;99123.27;105758;1277;99324;-69
2022/04/15 22:16:33;;;;;;;33.00;19.30;;;;;;;9.65;63.66;99123.73;105741;1278;99163;-68
2022/04/15 22:19:01;;;;;;;35.60;19.30;;;;;;;9.62;63.61;99118.44;105799;1276;113080;-68
2022/04/15 22:21:37;;;;;;;35.10;20.80;;;;;;;9.61;63.74;99120.98;105820;1276;99205;-68
2022/04/15 22:24:05;;;;;;;31.90;19.90;;;;;;;9.60;63.62;99127.82;105970;1277;107903;-68
2022/04/15 22:26:34;;;;;;;33.00;20.30;;;;;;;9.56;63.71;99131.65;105889;1276;99429;-68
2022/04/15 22:29:08;;;;;;;32.10;19.20;;;;;;;9.51;63.86;99130.66;105863;1278;97736;-66
2022/04/15 22:31:40;;;;;;;32.10;19.70;;;;;;;9.48;63.83;99127.87;105947;1276;113391;-69
2022/04/15 22:34:12;;;;;;;33.60;20.00;;;;;;;9.46;63.95;99125.17;105965;1276;99263;-68
2022/04/15 22:36:41;;;;;;;35.70;20.90;;;;;;;9.46;63.90;99120.96;105922;1276;108363;-68
2022/04/15 22:39:11;;;;;;;32.20;19.50;;;;;;;9.45;64.07;99123.46;105859;1276;99339;-69
2022/04/15 22:41:39;;;;;;;33.90;20.30;;;;;;;9.46;64.13;99122.73;105865;1276;99197;-69
2022/04/15 22:44:09;;;;;;;36.20;22.20;;;;;;;9.46;64.03;99122.38;105876;1277;113408;-68
2022/04/15 22:46:37;;;;;;;38.00;21.50;;;;;;;9.44;63.96;99121.44;105842;1276;97962;-69
2022/04/15 22:49:07;;;;;;;33.60;21.60;;;;;;;9.42;64.03;99121.61;105880;1276;108410;-68
2022/04/15 22:51:35;;;;;;;34.60;20.90;;;;;;;9.39;64.06;99118.90;105781;1276;99352;-69
2022/04/15 22:54:03;;;;;;;32.90;20.70;;;;;;;9.36;64.08;99118.92;105833;1277;99297;-69
2022/04/15 22:59:20;;;;;;;31.80;19.40;;;;;;;9.35;64.23;99116.01;105861;1277;99919;-68
2022/04/15 23:01:49;;;;;;;31.20;19.60;;;;;;;9.34;64.33;99117.83;105886;1278;107171;-69
2022/04/15 23:04:18;;;;;;;33.50;19.30;;;;;;;9.35;64.36;99120.29;105845;1276;97866;-69
2022/04/15 23:06:49;;;;;;;29.30;16.90;;;;;;;9.34;64.47;99120.47;105911;1276;96738;-68
2022/04/15 23:09:20;;;;;;;34.00;20.50;;;;;;;9.35;64.50;99119.05;105785;1278;113383;-68
2022/04/15 23:11:49;;;;;;;35.70;20.40;;;;;;;9.34;64.34;99112.89;105925;1276;99296;-72
2022/04/15 23:14:17;;;;;;;37.30;22.00;;;;;;;9.35;64.61;99110.55;106032;1276;107992;-69
2022/04/15 23:16:46;;;;;;;33.50;21.40;;;;;;;9.36;64.50;99107.60;105917;1277;99254;-69
2022/04/15 23:19:15;;;;;;;36.50;22.20;;;;;;;9.36;64.56;99108.33;105924;1276;99248;-69
2022/04/15 23:21:45;;;;;;;38.40;22.70;;;;;;;9.36;64.53;99104.63;105904;1276;113268;-68
2022/04/15 23:24:16;;;;;;;34.40;21.40;;;;;;;9.35;64.72;99105.42;105795;1278;99253;-69
2022/04/15 23:26:49;;;;;;;38.00;22.80;;;;;;;9.36;64.77;99103.90;105892;1276;107928;-69
2022/04/15 23:29:18;;;;;;;35.80;22.40;;;;;;;9.37;64.68;99103.63;105840;1279;96689;-70
2022/04/15 23:31:47;;;;;;;34.90;21.40;;;;;;;9.38;64.79;99105.35;105879;1276;99256;-67
2022/04/15 23:34:18;;;;;;;33.90;20.00;;;;;;;9.37;64.51;99109.36;105948;1276;112354;-68
2022/04/15 23:36:48;;;;;;;33.60;21.30;;;;;;;9.33;64.72;99109.61;105901;1276;99205;-69
2022/04/15 23:39:19;;;;;;;31.70;19.70;;;;;;;9.33;64.91;99113.52;105865;1276;108491;-69
2022/04/15 23:41:47;;;;;;;34.50;21.10;;;;;;;9.32;64.80;99118.66;105791;1276;99225;-70
2022/04/15 23:44:15;;;;;;;33.80;20.50;;;;;;;9.31;64.76;99129.57;105981;1276;99355;-69
2022/04/15 23:49:31;;;;;;;33.20;21.30;;;;;;;9.31;65.03;99135.73;105845;1276;99140;-69
2022/04/15 23:52:02;;;;;;;30.80;19.20;;;;;;;9.32;64.81;99141.36;105847;1276;108329;-68
2022/04/15 23:54:30;;;;;;;36.90;22.60;;;;;;;9.30;64.90;99143.61;105853;1276;96600;-68
2022/04/15 23:57:00;;;;;;;37.70;22.50;;;;;;;9.29;65.10;99139.59;105909;1276;98351;-68
2022/04/15 23:59:29;;;;;;;35.60;22.40;;;;;;;9.32;65.06;99139.60;105867;1276;113296;-68
